Terminal Aerodrome Forecast
Issued by NWS Sterling, VA

Current Version | Previous Version | Graphics & Text | Print | Product List | Glossary On
Versions: 1 2 3 4 5 6 7 8 9 10 11 12 13 14 15 16 17 18 19 20 21 22 23 24
776
FTUS41 KLWX 181009 AAA
TAFMRB
TAF AMD
KMRB 181009Z 1810/1906 VRB03KT 3SM BR SCT006 BKN200
     FM181200 20004KT P6SM SCT090 BKN200
     FM181900 24008G16KT 6SM -SHRA VCTS BKN050CB BKN130
     FM182200 VRB04KT P6SM SCT050 BKN200=

USA.gov is the U.S. government's official web portal to all federal, state and local government web resources and services.